sensor_id;sensor_type;location;lat;lon;timestamp;P1;durP1;ratioP1;P2;durP2;ratioP2
17207;SDS011;8720;48.488;9.202;2023-07-30T00:02:14;3.50;;;3.20;;
17207;SDS011;8720;48.488;9.202;2023-07-30T00:04:42;4.63;;;4.20;;
17207;SDS011;8720;48.488;9.202;2023-07-30T00:07:10;5.80;;;3.47;;
17207;SDS011;8720;48.488;9.202;2023-07-30T00:09:38;3.90;;;3.50;;
17207;SDS011;8720;48.488;9.202;2023-07-30T00:12:06;4.67;;;4.17;;
17207;SDS011;8720;48.488;9.202;2023-07-30T00:14:35;3.90;;;3.43;;
17207;SDS011;8720;48.488;9.202;2023-07-30T00:17:04;4.70;;;3.53;;
17207;SDS011;8720;48.488;9.202;2023-07-30T00:19:31;4.10;;;3.70;;
17207;SDS011;8720;48.488;9.202;2023-07-30T00:22:00;4.93;;;3.80;;
17207;SDS011;8720;48.488;9.202;2023-07-30T00:24:28;4.60;;;3.60;;
17207;SDS011;8720;48.488;9.202;2023-07-30T00:26:55;4.97;;;4.50;;
17207;SDS011;8720;48.488;9.202;2023-07-30T00:29:22;4.80;;;4.40;;
17207;SDS011;8720;48.488;9.202;2023-07-30T00:31:49;5.63;;;3.77;;
17207;SDS011;8720;48.488;9.202;2023-07-30T00:34:18;3.80;;;3.40;;
17207;SDS011;8720;48.488;9.202;2023-07-30T00:36:45;3.47;;;3.17;;
17207;SDS011;8720;48.488;9.202;2023-07-30T00:39:13;3.10;;;2.83;;
17207;SDS011;8720;48.488;9.202;2023-07-30T00:41:40;4.00;;;3.27;;
17207;SDS011;8720;48.488;9.202;2023-07-30T00:44:07;3.43;;;2.90;;
17207;SDS011;8720;48.488;9.202;2023-07-30T00:46:35;3.33;;;3.03;;
17207;SDS011;8720;48.488;9.202;2023-07-30T00:49:03;4.53;;;2.60;;
17207;SDS011;8720;48.488;9.202;2023-07-30T00:51:32;3.87;;;3.47;;
17207;SDS011;8720;48.488;9.202;2023-07-30T00:54:00;3.50;;;3.20;;
17207;SDS011;8720;48.488;9.202;2023-07-30T00:56:28;3.73;;;3.43;;
17207;SDS011;8720;48.488;9.202;2023-07-30T00:58:56;6.80;;;3.13;;
17207;SDS011;8720;48.488;9.202;2023-07-30T01:01:25;3.23;;;2.67;;
17207;SDS011;8720;48.488;9.202;2023-07-30T01:03:52;3.47;;;3.17;;
17207;SDS011;8720;48.488;9.202;2023-07-30T01:06:20;4.07;;;3.53;;
17207;SDS011;8720;48.488;9.202;2023-07-30T01:08:50;3.30;;;3.00;;
17207;SDS011;8720;48.488;9.202;2023-07-30T01:11:17;4.03;;;2.83;;
17207;SDS011;8720;48.488;9.202;2023-07-30T01:13:46;3.40;;;3.10;;
17207;SDS011;8720;48.488;9.202;2023-07-30T01:16:14;2.77;;;2.57;;
17207;SDS011;8720;48.488;9.202;2023-07-30T01:18:41;3.43;;;3.10;;
17207;SDS011;8720;48.488;9.202;2023-07-30T01:21:10;3.73;;;3.33;;
17207;SDS011;8720;48.488;9.202;2023-07-30T01:23:37;3.30;;;2.90;;
17207;SDS011;8720;48.488;9.202;2023-07-30T01:26:07;3.53;;;2.80;;
17207;SDS011;8720;48.488;9.202;2023-07-30T01:28:39;3.10;;;2.80;;
17207;SDS011;8720;48.488;9.202;2023-07-30T01:31:14;2.70;;;2.50;;
17207;SDS011;8720;48.488;9.202;2023-07-30T01:33:44;3.13;;;2.83;;
17207;SDS011;8720;48.488;9.202;2023-07-30T01:36:19;4.33;;;2.60;;
17207;SDS011;8720;48.488;9.202;2023-07-30T01:38:48;2.40;;;2.20;;
17207;SDS011;8720;48.488;9.202;2023-07-30T01:41:17;3.10;;;2.53;;
17207;SDS011;8720;48.488;9.202;2023-07-30T01:43:44;3.37;;;2.90;;
17207;SDS011;8720;48.488;9.202;2023-07-30T01:46:12;2.70;;;2.50;;
17207;SDS011;8720;48.488;9.202;2023-07-30T01:48:39;2.67;;;2.47;;
17207;SDS011;8720;48.488;9.202;2023-07-30T01:51:06;3.50;;;2.90;;
17207;SDS011;8720;48.488;9.202;2023-07-30T01:53:35;2.90;;;2.60;;
17207;SDS011;8720;48.488;9.202;2023-07-30T01:56:04;2.97;;;2.30;;
17207;SDS011;8720;48.488;9.202;2023-07-30T01:58:32;3.13;;;2.40;;
17207;SDS011;8720;48.488;9.202;2023-07-30T02:03:37;3.37;;;2.90;;
17207;SDS011;8720;48.488;9.202;2023-07-30T02:06:04;3.13;;;2.50;;
17207;SDS011;8720;48.488;9.202;2023-07-30T02:08:32;2.60;;;2.23;;
17207;SDS011;8720;48.488;9.202;2023-07-30T02:11:00;2.80;;;2.47;;
17207;SDS011;8720;48.488;9.202;2023-07-30T02:13:28;2.80;;;2.50;;
17207;SDS011;8720;48.488;9.202;2023-07-30T02:15:55;2.30;;;2.10;;
17207;SDS011;8720;48.488;9.202;2023-07-30T02:18:22;3.67;;;2.60;;
17207;SDS011;8720;48.488;9.202;2023-07-30T02:20:50;2.80;;;2.30;;
17207;SDS011;8720;48.488;9.202;2023-07-30T02:23:17;3.27;;;2.97;;
17207;SDS011;8720;48.488;9.202;2023-07-30T02:25:45;3.03;;;2.73;;
17207;SDS011;8720;48.488;9.202;2023-07-30T02:28:13;4.37;;;2.70;;
17207;SDS011;8720;48.488;9.202;2023-07-30T02:30:40;2.63;;;2.43;;
17207;SDS011;8720;48.488;9.202;2023-07-30T02:33:08;2.57;;;2.37;;
17207;SDS011;8720;48.488;9.202;2023-07-30T02:35:35;3.43;;;2.23;;
17207;SDS011;8720;48.488;9.202;2023-07-30T02:38:02;2.63;;;2.43;;
17207;SDS011;8720;48.488;9.202;2023-07-30T02:40:30;4.87;;;2.70;;
17207;SDS011;8720;48.488;9.202;2023-07-30T02:42:58;2.90;;;2.60;;
17207;SDS011;8720;48.488;9.202;2023-07-30T02:45:26;2.70;;;2.30;;
17207;SDS011;8720;48.488;9.202;2023-07-30T02:47:54;2.60;;;2.37;;
17207;SDS011;8720;48.488;9.202;2023-07-30T02:50:21;2.83;;;2.40;;
17207;SDS011;8720;48.488;9.202;2023-07-30T02:52:48;3.03;;;2.37;;
17207;SDS011;8720;48.488;9.202;2023-07-30T02:55:15;3.37;;;2.83;;
17207;SDS011;8720;48.488;9.202;2023-07-30T02:57:43;3.17;;;2.43;;
17207;SDS011;8720;48.488;9.202;2023-07-30T03:00:11;2.30;;;2.10;;
17207;SDS011;8720;48.488;9.202;2023-07-30T03:02:40;3.10;;;2.80;;
17207;SDS011;8720;48.488;9.202;2023-07-30T03:05:08;2.60;;;2.40;;
17207;SDS011;8720;48.488;9.202;2023-07-30T03:07:36;2.90;;;2.37;;
17207;SDS011;8720;48.488;9.202;2023-07-30T03:10:03;3.40;;;2.73;;
17207;SDS011;8720;48.488;9.202;2023-07-30T03:12:31;2.60;;;2.40;;
17207;SDS011;8720;48.488;9.202;2023-07-30T03:14:58;2.53;;;2.23;;
17207;SDS011;8720;48.488;9.202;2023-07-30T03:17:25;3.37;;;2.50;;
17207;SDS011;8720;48.488;9.202;2023-07-30T03:19:54;3.60;;;2.73;;
17207;SDS011;8720;48.488;9.202;2023-07-30T03:22:21;2.73;;;2.37;;
17207;SDS011;8720;48.488;9.202;2023-07-30T03:24:49;3.27;;;2.53;;
17207;SDS011;8720;48.488;9.202;2023-07-30T03:27:16;2.60;;;2.40;;
17207;SDS011;8720;48.488;9.202;2023-07-30T03:29:43;3.20;;;2.30;;
17207;SDS011;8720;48.488;9.202;2023-07-30T03:32:11;2.47;;;2.27;;
17207;SDS011;8720;48.488;9.202;2023-07-30T03:34:38;2.50;;;2.30;;
17207;SDS011;8720;48.488;9.202;2023-07-30T03:37:07;2.40;;;2.20;;
17207;SDS011;8720;48.488;9.202;2023-07-30T03:39:34;2.70;;;2.33;;
17207;SDS011;8720;48.488;9.202;2023-07-30T03:42:02;3.10;;;2.20;;
17207;SDS011;8720;48.488;9.202;2023-07-30T03:44:29;2.50;;;2.13;;
17207;SDS011;8720;48.488;9.202;2023-07-30T03:46:57;4.27;;;2.67;;
17207;SDS011;8720;48.488;9.202;2023-07-30T03:49:24;2.80;;;2.50;;
17207;SDS011;8720;48.488;9.202;2023-07-30T03:51:51;2.90;;;2.40;;
17207;SDS011;8720;48.488;9.202;2023-07-30T03:54:20;3.37;;;2.50;;
17207;SDS011;8720;48.488;9.202;2023-07-30T03:56:47;3.00;;;2.50;;
17207;SDS011;8720;48.488;9.202;2023-07-30T03:59:14;2.47;;;2.20;;
17207;SDS011;8720;48.488;9.202;2023-07-30T04:01:42;3.00;;;2.37;;
17207;SDS011;8720;48.488;9.202;2023-07-30T04:04:09;3.47;;;2.40;;
17207;SDS011;8720;48.488;9.202;2023-07-30T04:06:36;2.40;;;2.20;;
17207;SDS011;8720;48.488;9.202;2023-07-30T04:09:03;2.13;;;1.93;;
17207;SDS011;8720;48.488;9.202;2023-07-30T04:11:32;2.60;;;2.37;;
17207;SDS011;8720;48.488;9.202;2023-07-30T04:13:59;2.80;;;2.27;;
17207;SDS011;8720;48.488;9.202;2023-07-30T04:16:27;2.50;;;2.30;;
17207;SDS011;8720;48.488;9.202;2023-07-30T04:18:54;3.00;;;2.60;;
17207;SDS011;8720;48.488;9.202;2023-07-30T04:21:21;2.80;;;2.27;;
17207;SDS011;8720;48.488;9.202;2023-07-30T04:23:48;3.13;;;2.60;;
17207;SDS011;8720;48.488;9.202;2023-07-30T04:26:16;3.77;;;2.60;;
17207;SDS011;8720;48.488;9.202;2023-07-30T04:28:45;2.60;;;2.20;;
17207;SDS011;8720;48.488;9.202;2023-07-30T04:31:13;3.07;;;2.50;;
17207;SDS011;8720;48.488;9.202;2023-07-30T04:33:40;2.60;;;2.40;;
17207;SDS011;8720;48.488;9.202;2023-07-30T04:36:07;3.13;;;2.37;;
17207;SDS011;8720;48.488;9.202;2023-07-30T04:38:35;2.80;;;2.60;;
17207;SDS011;8720;48.488;9.202;2023-07-30T04:41:02;2.93;;;2.57;;
17207;SDS011;8720;48.488;9.202;2023-07-30T04:43:35;3.10;;;2.80;;
17207;SDS011;8720;48.488;9.202;2023-07-30T04:46:04;2.80;;;2.50;;
17207;SDS011;8720;48.488;9.202;2023-07-30T04:48:31;2.77;;;2.57;;
17207;SDS011;8720;48.488;9.202;2023-07-30T04:51:00;4.20;;;2.70;;
17207;SDS011;8720;48.488;9.202;2023-07-30T04:53:27;3.00;;;2.80;;
17207;SDS011;8720;48.488;9.202;2023-07-30T04:55:55;2.83;;;2.50;;
17207;SDS011;8720;48.488;9.202;2023-07-30T04:58:23;3.27;;;2.60;;
17207;SDS011;8720;48.488;9.202;2023-07-30T05:00:50;3.00;;;2.70;;
17207;SDS011;8720;48.488;9.202;2023-07-30T05:03:19;2.70;;;2.50;;
17207;SDS011;8720;48.488;9.202;2023-07-30T05:05:46;3.60;;;2.43;;
17207;SDS011;8720;48.488;9.202;2023-07-30T05:08:13;2.50;;;2.30;;
17207;SDS011;8720;48.488;9.202;2023-07-30T05:10:41;2.57;;;2.30;;
17207;SDS011;8720;48.488;9.202;2023-07-30T05:13:08;5.23;;;2.80;;
17207;SDS011;8720;48.488;9.202;2023-07-30T05:15:35;3.40;;;2.80;;
17207;SDS011;8720;48.488;9.202;2023-07-30T05:18:02;2.70;;;2.50;;
17207;SDS011;8720;48.488;9.202;2023-07-30T05:20:31;3.13;;;2.50;;
17207;SDS011;8720;48.488;9.202;2023-07-30T05:22:58;3.87;;;2.60;;
17207;SDS011;8720;48.488;9.202;2023-07-30T05:25:27;2.90;;;2.60;;
17207;SDS011;8720;48.488;9.202;2023-07-30T05:27:54;2.27;;;2.07;;
17207;SDS011;8720;48.488;9.202;2023-07-30T05:30:22;2.67;;;2.43;;
17207;SDS011;8720;48.488;9.202;2023-07-30T05:32:49;3.60;;;2.60;;
17207;SDS011;8720;48.488;9.202;2023-07-30T05:35:16;3.13;;;2.70;;
17207;SDS011;8720;48.488;9.202;2023-07-30T05:37:45;2.50;;;2.20;;
17207;SDS011;8720;48.488;9.202;2023-07-30T05:40:12;2.43;;;2.20;;
17207;SDS011;8720;48.488;9.202;2023-07-30T05:42:39;6.13;;;2.20;;
17207;SDS011;8720;48.488;9.202;2023-07-30T05:45:07;2.37;;;2.17;;
17207;SDS011;8720;48.488;9.202;2023-07-30T05:47:35;1.83;;;1.73;;
17207;SDS011;8720;48.488;9.202;2023-07-30T05:50:03;2.37;;;2.17;;
17207;SDS011;8720;48.488;9.202;2023-07-30T05:52:31;2.30;;;2.00;;
17207;SDS011;8720;48.488;9.202;2023-07-30T05:55:00;2.53;;;2.03;;
17207;SDS011;8720;48.488;9.202;2023-07-30T05:57:27;2.20;;;2.00;;
17207;SDS011;8720;48.488;9.202;2023-07-30T05:59:54;2.80;;;2.00;;
17207;SDS011;8720;48.488;9.202;2023-07-30T06:02:21;2.27;;;1.83;;
17207;SDS011;8720;48.488;9.202;2023-07-30T06:04:49;2.20;;;2.00;;
17207;SDS011;8720;48.488;9.202;2023-07-30T06:07:16;2.30;;;1.97;;
17207;SDS011;8720;48.488;9.202;2023-07-30T06:09:43;2.20;;;2.00;;
17207;SDS011;8720;48.488;9.202;2023-07-30T06:12:12;1.90;;;1.70;;
17207;SDS011;8720;48.488;9.202;2023-07-30T06:14:40;2.13;;;1.90;;
17207;SDS011;8720;48.488;9.202;2023-07-30T06:17:07;2.43;;;1.97;;
17207;SDS011;8720;48.488;9.202;2023-07-30T06:19:34;4.63;;;2.23;;
17207;SDS011;8720;48.488;9.202;2023-07-30T06:22:01;2.70;;;2.10;;
17207;SDS011;8720;48.488;9.202;2023-07-30T06:24:29;2.53;;;2.07;;
17207;SDS011;8720;48.488;9.202;2023-07-30T06:26:56;2.53;;;2.20;;
17207;SDS011;8720;48.488;9.202;2023-07-30T06:29:25;3.90;;;2.40;;
17207;SDS011;8720;48.488;9.202;2023-07-30T06:31:52;2.90;;;2.57;;
17207;SDS011;8720;48.488;9.202;2023-07-30T06:34:19;2.37;;;2.17;;
17207;SDS011;8720;48.488;9.202;2023-07-30T06:36:47;3.40;;;2.40;;
17207;SDS011;8720;48.488;9.202;2023-07-30T06:39:14;7.60;;;2.27;;
17207;SDS011;8720;48.488;9.202;2023-07-30T06:41:41;2.30;;;2.03;;
17207;SDS011;8720;48.488;9.202;2023-07-30T06:44:09;2.20;;;2.00;;
17207;SDS011;8720;48.488;9.202;2023-07-30T06:46:37;2.37;;;2.17;;
17207;SDS011;8720;48.488;9.202;2023-07-30T06:49:05;1.90;;;1.70;;
17207;SDS011;8720;48.488;9.202;2023-07-30T06:51:32;3.20;;;1.97;;
17207;SDS011;8720;48.488;9.202;2023-07-30T06:53:59;2.20;;;2.00;;
17207;SDS011;8720;48.488;9.202;2023-07-30T06:56:26;2.00;;;1.80;;
17207;SDS011;8720;48.488;9.202;2023-07-30T06:58:53;2.13;;;1.93;;
17207;SDS011;8720;48.488;9.202;2023-07-30T07:01:21;2.50;;;2.30;;
17207;SDS011;8720;48.488;9.202;2023-07-30T07:03:49;2.20;;;1.93;;
17207;SDS011;8720;48.488;9.202;2023-07-30T07:06:16;2.23;;;1.80;;
17207;SDS011;8720;48.488;9.202;2023-07-30T07:08:44;2.20;;;2.00;;
17207;SDS011;8720;48.488;9.202;2023-07-30T07:11:11;1.90;;;1.70;;
17207;SDS011;8720;48.488;9.202;2023-07-30T07:13:38;1.60;;;1.50;;
17207;SDS011;8720;48.488;9.202;2023-07-30T07:16:05;2.60;;;1.40;;
17207;SDS011;8720;48.488;9.202;2023-07-30T07:18:33;2.27;;;1.40;;
17207;SDS011;8720;48.488;9.202;2023-07-30T07:21:01;1.60;;;1.23;;
17207;SDS011;8720;48.488;9.202;2023-07-30T07:23:29;1.90;;;1.50;;
17207;SDS011;8720;48.488;9.202;2023-07-30T07:25:56;2.10;;;1.43;;
17207;SDS011;8720;48.488;9.202;2023-07-30T07:28:23;2.23;;;1.90;;
17207;SDS011;8720;48.488;9.202;2023-07-30T07:30:51;2.07;;;1.80;;
17207;SDS011;8720;48.488;9.202;2023-07-30T07:33:18;2.23;;;1.83;;
17207;SDS011;8720;48.488;9.202;2023-07-30T07:35:45;1.80;;;1.40;;
17207;SDS011;8720;48.488;9.202;2023-07-30T07:38:14;2.33;;;1.63;;
17207;SDS011;8720;48.488;9.202;2023-07-30T07:40:41;2.60;;;1.50;;
17207;SDS011;8720;48.488;9.202;2023-07-30T07:43:08;1.80;;;1.60;;
17207;SDS011;8720;48.488;9.202;2023-07-30T07:45:36;2.70;;;1.57;;
17207;SDS011;8720;48.488;9.202;2023-07-30T07:48:03;2.80;;;2.17;;
17207;SDS011;8720;48.488;9.202;2023-07-30T07:50:31;2.10;;;1.90;;
17207;SDS011;8720;48.488;9.202;2023-07-30T07:52:58;2.23;;;1.97;;
17207;SDS011;8720;48.488;9.202;2023-07-30T07:55:26;4.83;;;3.10;;
17207;SDS011;8720;48.488;9.202;2023-07-30T07:57:54;5.03;;;1.90;;
17207;SDS011;8720;48.488;9.202;2023-07-30T08:00:21;3.23;;;1.87;;
17207;SDS011;8720;48.488;9.202;2023-07-30T08:02:48;1.73;;;1.50;;
17207;SDS011;8720;48.488;9.202;2023-07-30T08:05:15;2.00;;;1.43;;
17207;SDS011;8720;48.488;9.202;2023-07-30T08:07:44;1.93;;;1.40;;
17207;SDS011;8720;48.488;9.202;2023-07-30T08:10:13;2.43;;;1.90;;
17207;SDS011;8720;48.488;9.202;2023-07-30T08:12:41;2.17;;;1.60;;
17207;SDS011;8720;48.488;9.202;2023-07-30T08:15:09;1.70;;;1.30;;
17207;SDS011;8720;48.488;9.202;2023-07-30T08:17:36;4.53;;;1.70;;
17207;SDS011;8720;48.488;9.202;2023-07-30T08:20:04;2.03;;;1.60;;
17207;SDS011;8720;48.488;9.202;2023-07-30T08:22:33;4.60;;;1.73;;
17207;SDS011;8720;48.488;9.202;2023-07-30T08:25:00;2.13;;;1.60;;
17207;SDS011;8720;48.488;9.202;2023-07-30T08:27:28;1.77;;;1.67;;
17207;SDS011;8720;48.488;9.202;2023-07-30T08:29:57;2.33;;;1.80;;
17207;SDS011;8720;48.488;9.202;2023-07-30T08:32:24;2.00;;;1.40;;
17207;SDS011;8720;48.488;9.202;2023-07-30T08:34:51;1.70;;;1.30;;
17207;SDS011;8720;48.488;9.202;2023-07-30T08:37:18;1.70;;;1.57;;
17207;SDS011;8720;48.488;9.202;2023-07-30T08:39:46;2.17;;;1.63;;
17207;SDS011;8720;48.488;9.202;2023-07-30T08:42:13;6.00;;;1.73;;
17207;SDS011;8720;48.488;9.202;2023-07-30T08:44:40;2.43;;;1.40;;
17207;SDS011;8720;48.488;9.202;2023-07-30T08:47:09;1.60;;;1.30;;
17207;SDS011;8720;48.488;9.202;2023-07-30T08:49:36;1.80;;;1.60;;
17207;SDS011;8720;48.488;9.202;2023-07-30T08:52:04;2.30;;;1.73;;
17207;SDS011;8720;48.488;9.202;2023-07-30T08:54:36;2.07;;;1.60;;
17207;SDS011;8720;48.488;9.202;2023-07-30T08:57:05;1.70;;;1.50;;
17207;SDS011;8720;48.488;9.202;2023-07-30T08:59:36;2.10;;;1.70;;
17207;SDS011;8720;48.488;9.202;2023-07-30T09:02:19;1.80;;;1.60;;
17207;SDS011;8720;48.488;9.202;2023-07-30T09:04:53;2.17;;;1.73;;
17207;SDS011;8720;48.488;9.202;2023-07-30T09:07:24;1.57;;;1.20;;
17207;SDS011;8720;48.488;9.202;2023-07-30T09:09:52;1.73;;;1.53;;
17207;SDS011;8720;48.488;9.202;2023-07-30T09:12:19;1.77;;;1.60;;
17207;SDS011;8720;48.488;9.202;2023-07-30T09:14:51;1.90;;;1.60;;
17207;SDS011;8720;48.488;9.202;2023-07-30T09:17:20;2.23;;;1.70;;
17207;SDS011;8720;48.488;9.202;2023-07-30T09:19:47;2.20;;;1.50;;
17207;SDS011;8720;48.488;9.202;2023-07-30T09:22:19;1.87;;;1.60;;
17207;SDS011;8720;48.488;9.202;2023-07-30T09:24:50;1.90;;;1.77;;
17207;SDS011;8720;48.488;9.202;2023-07-30T09:27:19;2.33;;;1.80;;
17207;SDS011;8720;48.488;9.202;2023-07-30T09:29:51;3.60;;;1.40;;
17207;SDS011;8720;48.488;9.202;2023-07-30T09:32:21;1.63;;;1.40;;
17207;SDS011;8720;48.488;9.202;2023-07-30T09:34:52;2.17;;;1.60;;
17207;SDS011;8720;48.488;9.202;2023-07-30T09:37:20;2.10;;;1.80;;
17207;SDS011;8720;48.488;9.202;2023-07-30T09:39:48;2.93;;;2.17;;
17207;SDS011;8720;48.488;9.202;2023-07-30T09:42:15;2.00;;;1.60;;
17207;SDS011;8720;48.488;9.202;2023-07-30T09:44:43;3.00;;;1.60;;
17207;SDS011;8720;48.488;9.202;2023-07-30T09:47:14;1.70;;;1.60;;
17207;SDS011;8720;48.488;9.202;2023-07-30T09:49:43;2.00;;;1.60;;
17207;SDS011;8720;48.488;9.202;2023-07-30T09:52:10;1.60;;;1.50;;
17207;SDS011;8720;48.488;9.202;2023-07-30T09:54:40;1.77;;;1.53;;
17207;SDS011;8720;48.488;9.202;2023-07-30T09:57:08;2.60;;;1.80;;
17207;SDS011;8720;48.488;9.202;2023-07-30T09:59:35;1.50;;;1.23;;
17207;SDS011;8720;48.488;9.202;2023-07-30T10:02:04;2.73;;;1.90;;
17207;SDS011;8720;48.488;9.202;2023-07-30T10:04:34;2.67;;;1.67;;
17207;SDS011;8720;48.488;9.202;2023-07-30T10:07:12;1.50;;;1.40;;
17207;SDS011;8720;48.488;9.202;2023-07-30T10:09:45;1.80;;;1.40;;
17207;SDS011;8720;48.488;9.202;2023-07-30T10:12:16;2.03;;;1.50;;
17207;SDS011;8720;48.488;9.202;2023-07-30T10:14:49;1.83;;;1.40;;
17207;SDS011;8720;48.488;9.202;2023-07-30T10:17:17;2.13;;;1.80;;
17207;SDS011;8720;48.488;9.202;2023-07-30T10:19:46;1.60;;;1.40;;
17207;SDS011;8720;48.488;9.202;2023-07-30T10:22:25;2.20;;;1.67;;
17207;SDS011;8720;48.488;9.202;2023-07-30T10:24:56;2.10;;;1.57;;
17207;SDS011;8720;48.488;9.202;2023-07-30T10:27:25;2.63;;;2.10;;
17207;SDS011;8720;48.488;9.202;2023-07-30T10:30:08;2.17;;;1.60;;
17207;SDS011;8720;48.488;9.202;2023-07-30T10:32:38;3.03;;;1.87;;
17207;SDS011;8720;48.488;9.202;2023-07-30T10:35:07;4.07;;;1.60;;
17207;SDS011;8720;48.488;9.202;2023-07-30T10:37:36;2.20;;;1.60;;
17207;SDS011;8720;48.488;9.202;2023-07-30T10:40:16;2.13;;;1.93;;
17207;SDS011;8720;48.488;9.202;2023-07-30T10:42:44;2.03;;;1.70;;
17207;SDS011;8720;48.488;9.202;2023-07-30T10:45:11;2.00;;;1.47;;
17207;SDS011;8720;48.488;9.202;2023-07-30T10:47:40;1.57;;;1.43;;
17207;SDS011;8720;48.488;9.202;2023-07-30T10:50:08;2.10;;;1.70;;
17207;SDS011;8720;48.488;9.202;2023-07-30T10:52:39;1.60;;;1.30;;
17207;SDS011;8720;48.488;9.202;2023-07-30T10:55:07;2.30;;;1.80;;
17207;SDS011;8720;48.488;9.202;2023-07-30T10:57:35;2.10;;;1.90;;
17207;SDS011;8720;48.488;9.202;2023-07-30T11:00:05;1.90;;;1.73;;
17207;SDS011;8720;48.488;9.202;2023-07-30T11:02:34;2.10;;;1.90;;
17207;SDS011;8720;48.488;9.202;2023-07-30T11:05:10;1.90;;;1.70;;
17207;SDS011;8720;48.488;9.202;2023-07-30T11:07:50;2.67;;;1.70;;
17207;SDS011;8720;48.488;9.202;2023-07-30T11:10:18;2.53;;;2.20;;
17207;SDS011;8720;48.488;9.202;2023-07-30T11:12:47;3.03;;;2.03;;
17207;SDS011;8720;48.488;9.202;2023-07-30T11:15:15;2.57;;;1.90;;
17207;SDS011;8720;48.488;9.202;2023-07-30T11:17:43;1.90;;;1.70;;
17207;SDS011;8720;48.488;9.202;2023-07-30T11:20:21;2.47;;;1.63;;
17207;SDS011;8720;48.488;9.202;2023-07-30T11:22:53;1.80;;;1.60;;
17207;SDS011;8720;48.488;9.202;2023-07-30T11:25:20;3.60;;;1.80;;
17207;SDS011;8720;48.488;9.202;2023-07-30T11:27:47;1.73;;;1.53;;
17207;SDS011;8720;48.488;9.202;2023-07-30T11:30:16;2.70;;;2.07;;
17207;SDS011;8720;48.488;9.202;2023-07-30T11:32:44;2.10;;;1.70;;
17207;SDS011;8720;48.488;9.202;2023-07-30T11:35:12;2.37;;;1.60;;
17207;SDS011;8720;48.488;9.202;2023-07-30T11:37:43;2.03;;;1.67;;
17207;SDS011;8720;48.488;9.202;2023-07-30T11:40:12;2.47;;;1.97;;
17207;SDS011;8720;48.488;9.202;2023-07-30T11:42:39;2.27;;;1.73;;
17207;SDS011;8720;48.488;9.202;2023-07-30T11:45:17;1.63;;;1.50;;
17207;SDS011;8720;48.488;9.202;2023-07-30T11:47:46;2.30;;;1.80;;
17207;SDS011;8720;48.488;9.202;2023-07-30T11:50:16;2.30;;;2.03;;
17207;SDS011;8720;48.488;9.202;2023-07-30T11:52:51;2.00;;;1.77;;
17207;SDS011;8720;48.488;9.202;2023-07-30T11:55:21;2.00;;;1.80;;
17207;SDS011;8720;48.488;9.202;2023-07-30T11:57:51;2.30;;;2.00;;
17207;SDS011;8720;48.488;9.202;2023-07-30T12:00:20;2.20;;;1.70;;
17207;SDS011;8720;48.488;9.202;2023-07-30T12:02:47;1.87;;;1.73;;
17207;SDS011;8720;48.488;9.202;2023-07-30T12:05:16;1.73;;;1.63;;
17207;SDS011;8720;48.488;9.202;2023-07-30T12:07:44;2.30;;;2.07;;
17207;SDS011;8720;48.488;9.202;2023-07-30T12:10:14;3.23;;;2.30;;
17207;SDS011;8720;48.488;9.202;2023-07-30T12:12:45;2.47;;;2.27;;
17207;SDS011;8720;48.488;9.202;2023-07-30T12:15:18;2.10;;;1.90;;
17207;SDS011;8720;48.488;9.202;2023-07-30T12:17:45;2.83;;;2.10;;
17207;SDS011;8720;48.488;9.202;2023-07-30T12:20:13;3.13;;;1.90;;
17207;SDS011;8720;48.488;9.202;2023-07-30T12:22:40;2.00;;;1.80;;
17207;SDS011;8720;48.488;9.202;2023-07-30T12:25:09;2.93;;;1.83;;
17207;SDS011;8720;48.488;9.202;2023-07-30T12:27:36;2.60;;;1.80;;
17207;SDS011;8720;48.488;9.202;2023-07-30T12:30:06;3.00;;;1.80;;
17207;SDS011;8720;48.488;9.202;2023-07-30T12:32:34;2.53;;;1.90;;
17207;SDS011;8720;48.488;9.202;2023-07-30T12:35:01;4.03;;;2.23;;
17207;SDS011;8720;48.488;9.202;2023-07-30T12:37:30;2.23;;;2.03;;
17207;SDS011;8720;48.488;9.202;2023-07-30T12:39:58;3.40;;;2.10;;
17207;SDS011;8720;48.488;9.202;2023-07-30T12:42:25;2.00;;;1.70;;
17207;SDS011;8720;48.488;9.202;2023-07-30T12:44:52;2.60;;;1.80;;
17207;SDS011;8720;48.488;9.202;2023-07-30T12:47:21;2.87;;;1.73;;
17207;SDS011;8720;48.488;9.202;2023-07-30T12:49:48;2.37;;;2.17;;
17207;SDS011;8720;48.488;9.202;2023-07-30T12:52:16;2.20;;;1.80;;
17207;SDS011;8720;48.488;9.202;2023-07-30T12:54:43;1.70;;;1.53;;
17207;SDS011;8720;48.488;9.202;2023-07-30T12:57:10;2.57;;;2.27;;
17207;SDS011;8720;48.488;9.202;2023-07-30T12:59:37;2.73;;;1.90;;
17207;SDS011;8720;48.488;9.202;2023-07-30T13:02:05;3.43;;;1.93;;
17207;SDS011;8720;48.488;9.202;2023-07-30T13:04:34;2.10;;;1.87;;
17207;SDS011;8720;48.488;9.202;2023-07-30T13:07:01;2.53;;;2.10;;
17207;SDS011;8720;48.488;9.202;2023-07-30T13:09:28;2.33;;;2.13;;
17207;SDS011;8720;48.488;9.202;2023-07-30T13:11:57;3.40;;;1.70;;
17207;SDS011;8720;48.488;9.202;2023-07-30T13:14:25;2.77;;;1.80;;
17207;SDS011;8720;48.488;9.202;2023-07-30T13:16:52;2.20;;;2.00;;
17207;SDS011;8720;48.488;9.202;2023-07-30T13:19:19;2.20;;;2.00;;
17207;SDS011;8720;48.488;9.202;2023-07-30T13:21:48;2.17;;;1.97;;
17207;SDS011;8720;48.488;9.202;2023-07-30T13:24:15;2.60;;;2.23;;
17207;SDS011;8720;48.488;9.202;2023-07-30T13:26:43;3.47;;;2.07;;
17207;SDS011;8720;48.488;9.202;2023-07-30T13:29:10;2.20;;;2.00;;
17207;SDS011;8720;48.488;9.202;2023-07-30T13:31:37;2.40;;;2.13;;
17207;SDS011;8720;48.488;9.202;2023-07-30T13:34:04;2.30;;;2.10;;
17207;SDS011;8720;48.488;9.202;2023-07-30T13:36:32;2.80;;;2.03;;
17207;SDS011;8720;48.488;9.202;2023-07-30T13:39:00;2.97;;;2.10;;
17207;SDS011;8720;48.488;9.202;2023-07-30T13:41:28;4.40;;;2.57;;
17207;SDS011;8720;48.488;9.202;2023-07-30T13:43:55;2.03;;;1.83;;
17207;SDS011;8720;48.488;9.202;2023-07-30T13:46:22;2.40;;;1.97;;
17207;SDS011;8720;48.488;9.202;2023-07-30T13:48:50;2.67;;;1.97;;
17207;SDS011;8720;48.488;9.202;2023-07-30T13:51:17;2.07;;;1.70;;
17207;SDS011;8720;48.488;9.202;2023-07-30T13:53:44;2.97;;;2.00;;
17207;SDS011;8720;48.488;9.202;2023-07-30T13:56:13;2.67;;;2.10;;
17207;SDS011;8720;48.488;9.202;2023-07-30T13:58:40;2.00;;;1.80;;
17207;SDS011;8720;48.488;9.202;2023-07-30T14:01:08;2.90;;;2.17;;
17207;SDS011;8720;48.488;9.202;2023-07-30T14:03:35;2.30;;;1.93;;
17207;SDS011;8720;48.488;9.202;2023-07-30T14:06:02;2.30;;;1.83;;
17207;SDS011;8720;48.488;9.202;2023-07-30T14:08:30;2.40;;;2.20;;
17207;SDS011;8720;48.488;9.202;2023-07-30T14:10:57;2.63;;;2.17;;
17207;SDS011;8720;48.488;9.202;2023-07-30T14:13:26;4.23;;;2.13;;
17207;SDS011;8720;48.488;9.202;2023-07-30T14:15:54;2.57;;;2.10;;
17207;SDS011;8720;48.488;9.202;2023-07-30T14:18:21;2.20;;;2.00;;
17207;SDS011;8720;48.488;9.202;2023-07-30T14:20:50;3.20;;;2.33;;
17207;SDS011;8720;48.488;9.202;2023-07-30T14:23:17;4.20;;;2.40;;
17207;SDS011;8720;48.488;9.202;2023-07-30T14:25:44;3.10;;;1.80;;
17207;SDS011;8720;48.488;9.202;2023-07-30T14:28:12;4.00;;;2.10;;
17207;SDS011;8720;48.488;9.202;2023-07-30T14:30:41;2.20;;;2.00;;
17207;SDS011;8720;48.488;9.202;2023-07-30T14:33:09;2.80;;;2.20;;
17207;SDS011;8720;48.488;9.202;2023-07-30T14:35:36;2.63;;;1.90;;
17207;SDS011;8720;48.488;9.202;2023-07-30T14:38:04;2.93;;;2.30;;
17207;SDS011;8720;48.488;9.202;2023-07-30T14:40:31;2.80;;;2.00;;
17207;SDS011;8720;48.488;9.202;2023-07-30T14:42:59;3.07;;;1.87;;
17207;SDS011;8720;48.488;9.202;2023-07-30T14:45:26;3.33;;;2.20;;
17207;SDS011;8720;48.488;9.202;2023-07-30T14:47:55;2.20;;;2.00;;
17207;SDS011;8720;48.488;9.202;2023-07-30T14:50:23;2.37;;;2.17;;
17207;SDS011;8720;48.488;9.202;2023-07-30T14:52:50;2.70;;;2.07;;
17207;SDS011;8720;48.488;9.202;2023-07-30T14:55:17;2.63;;;1.93;;
17207;SDS011;8720;48.488;9.202;2023-07-30T14:57:44;2.63;;;1.87;;
17207;SDS011;8720;48.488;9.202;2023-07-30T15:00:12;2.17;;;1.97;;
17207;SDS011;8720;48.488;9.202;2023-07-30T15:02:42;2.10;;;1.70;;
17207;SDS011;8720;48.488;9.202;2023-07-30T15:05:11;2.23;;;1.43;;
17207;SDS011;8720;48.488;9.202;2023-07-30T15:07:38;2.20;;;1.80;;
17207;SDS011;8720;48.488;9.202;2023-07-30T15:10:06;2.30;;;1.97;;